Terminal Aerodrome Forecast
Issued by NWS

Home | Current Version | Previous Version | Text Only | Print | Product List | Glossary On
Versions: 1 2 3 4 5 6 7 8 9 10 11 12 13 14 15 16 17
000
FTUS46 KSTO 230531
TAFSCK
TAF
KSCK 230531Z 2306/2406 VRB03KT P6SM BKN200
     FM230800 VRB03KT 2SM BR BKN200
     FM231200 VRB03KT 1/4SM FG VV001
     FM231800 31005KT 3SM BR BKN004
     FM232100 31005KT P6SM BKN150=

USA.gov is the U.S. government's official web portal to all federal, state and local government web resources and services.